createdAt,value
2018-02-11T00:01:13.761Z,79.65
2018-02-11T00:03:39.695Z,79.58
2018-02-11T00:06:08.989Z,79.58
2018-02-11T00:08:34.928Z,79.70
2018-02-11T00:11:04.395Z,79.65
2018-02-11T00:13:30.302Z,79.48
2018-02-11T00:15:59.756Z,79.32
2018-02-11T00:18:25.691Z,78.83
2018-02-11T00:20:53.311Z,78.69
2018-02-11T00:23:19.255Z,79.07
2018-02-11T00:25:48.679Z,78.99
2018-02-11T00:28:14.583Z,79.03
2018-02-11T00:30:40.512Z,78.92
2018-02-11T00:33:06.483Z,78.82
2018-02-11T00:35:32.413Z,78.76
2018-02-11T00:38:05.989Z,78.78
2018-02-11T00:40:31.914Z,78.70
2018-02-11T00:42:57.834Z,78.30
2018-02-11T00:45:23.752Z,77.81
2018-02-11T00:47:49.709Z,77.96
2018-02-11T00:50:15.638Z,78.04
2018-02-11T00:52:44.961Z,77.84
2018-02-11T00:55:10.908Z,77.33
2018-02-11T00:57:38.474Z,77.23
2018-02-11T01:00:04.432Z,77.15
2018-02-11T01:02:33.780Z,77.24
2018-02-11T01:04:59.720Z,77.20
2018-02-11T01:07:25.672Z,76.97
2018-02-11T01:09:51.562Z,77.07
2018-02-11T01:12:17.470Z,77.10
2018-02-11T01:14:44.603Z,77.28
2018-02-11T01:17:10.510Z,77.31
2018-02-11T01:19:39.332Z,77.65
2018-02-11T01:22:05.256Z,77.42
2018-02-11T01:24:33.922Z,77.44
2018-02-11T01:26:59.846Z,77.20
2018-02-11T01:29:28.749Z,77.21
2018-02-11T01:31:54.692Z,77.54
2018-02-11T01:34:23.397Z,77.56
2018-02-11T01:36:49.332Z,77.52
2018-02-11T01:39:18.133Z,77.58
2018-02-11T01:41:44.091Z,77.57
2018-02-11T01:44:10.071Z,77.47
2018-02-11T01:46:35.993Z,77.47
2018-02-11T01:49:01.904Z,77.70
2018-02-11T01:51:31.069Z,77.76
2018-02-11T01:53:56.993Z,77.23
2018-02-11T01:56:24.667Z,77.17
2018-02-11T01:58:50.589Z,76.86
2018-02-11T02:01:20.125Z,76.84
2018-02-11T02:03:46.028Z,76.66
2018-02-11T02:06:15.416Z,76.79
2018-02-11T02:08:41.345Z,76.65
2018-02-11T02:11:08.622Z,76.24
2018-02-11T02:13:34.535Z,76.20
2018-02-11T02:16:03.253Z,76.21
2018-02-11T02:18:29.206Z,76.35
2018-02-11T02:20:55.116Z,76.25
2018-02-11T02:23:21.064Z,75.86
2018-02-11T02:25:46.986Z,75.81
2018-02-11T02:28:14.886Z,75.88
2018-02-11T02:30:40.837Z,75.62
2018-02-11T02:33:09.783Z,75.37
2018-02-11T02:35:35.755Z,75.26
2018-02-11T02:38:05.215Z,74.88
2018-02-11T02:40:31.161Z,74.48
2018-02-11T02:43:01.038Z,74.75
2018-02-11T02:45:26.975Z,75.06
2018-02-11T02:47:54.735Z,75.05
2018-02-11T02:50:20.658Z,75.25
2018-02-11T02:52:50.377Z,75.33
2018-02-11T02:55:16.311Z,75.50
2018-02-11T02:57:42.259Z,75.34
2018-02-11T03:00:08.203Z,75.15
2018-02-11T03:02:34.105Z,75.20
2018-02-11T03:05:00.712Z,75.43
2018-02-11T03:07:26.653Z,75.54
2018-02-11T03:09:55.860Z,75.55
2018-02-11T03:12:21.806Z,75.59
2018-02-11T03:14:51.408Z,75.66
2018-02-11T03:17:17.322Z,75.72
2018-02-11T03:19:44.510Z,75.87
2018-02-11T03:22:10.445Z,75.36
2018-02-11T03:24:39.368Z,75.35
2018-02-11T03:27:05.274Z,75.34
2018-02-11T03:29:33.985Z,75.48
2018-02-11T03:31:59.930Z,74.88
2018-02-11T03:34:25.872Z,74.98
2018-02-11T03:36:51.799Z,74.74
2018-02-11T03:39:17.732Z,74.48
2018-02-11T03:41:47.303Z,74.47
2018-02-11T03:44:13.259Z,74.48
2018-02-11T03:46:42.284Z,74.42
2018-02-11T03:49:08.181Z,74.07
2018-02-11T03:51:35.112Z,73.94
2018-02-11T03:54:01.050Z,73.61
2018-02-11T03:56:29.986Z,73.77
2018-02-11T03:58:55.898Z,73.74
2018-02-11T04:01:24.803Z,74.01
2018-02-11T04:03:50.774Z,73.97
2018-02-11T04:06:20.067Z,73.75
2018-02-11T04:08:45.970Z,73.62
2018-02-11T04:11:11.909Z,73.72
2018-02-11T04:13:37.902Z,73.35
2018-02-11T04:16:03.845Z,73.42
2018-02-11T04:18:31.252Z,73.66
2018-02-11T04:20:57.175Z,73.51
2018-02-11T04:23:26.628Z,73.52
2018-02-11T04:25:52.541Z,73.20
2018-02-11T04:28:22.150Z,73.03
2018-02-11T04:30:48.059Z,73.26
2018-02-11T04:33:15.433Z,73.23
2018-02-11T04:35:41.352Z,73.12
2018-02-11T04:38:10.793Z,73.29
2018-02-11T04:40:36.757Z,73.02
2018-02-11T04:43:05.807Z,73.08
2018-02-11T04:45:31.765Z,73.33
2018-02-11T04:47:59.371Z,73.12
2018-02-11T04:50:25.328Z,73.23
2018-02-11T04:52:51.281Z,72.66
2018-02-11T04:55:17.203Z,72.50
2018-02-11T04:57:43.119Z,72.63
2018-02-11T05:00:11.058Z,71.73
2018-02-11T05:02:37.001Z,71.64
2018-02-11T05:05:05.825Z,70.94
2018-02-11T05:07:31.755Z,71.06
2018-02-11T05:10:00.665Z,70.51
2018-02-11T05:12:26.622Z,70.31
2018-02-11T05:14:55.417Z,70.33
2018-02-11T05:17:21.339Z,70.63
2018-02-11T05:19:50.077Z,70.60
2018-02-11T05:22:16.016Z,70.86
2018-02-11T05:24:41.949Z,71.00
2018-02-11T05:27:07.896Z,70.86
2018-02-11T05:29:33.836Z,71.39
2018-02-11T05:32:03.486Z,71.52
2018-02-11T05:34:29.395Z,71.41
2018-02-11T05:36:56.736Z,71.63
2018-02-11T05:39:22.658Z,71.79
2018-02-11T05:41:51.947Z,72.04
2018-02-11T05:44:17.901Z,72.23
2018-02-11T05:46:47.086Z,71.97
2018-02-11T05:49:13.006Z,71.89
2018-02-11T05:51:40.713Z,72.22
2018-02-11T05:54:06.662Z,71.71
2018-02-11T05:56:36.312Z,71.53
2018-02-11T05:59:02.262Z,70.80
2018-02-11T06:01:28.185Z,71.20
2018-02-11T06:03:54.122Z,70.78
2018-02-11T06:06:20.044Z,70.94
2018-02-11T06:08:46.944Z,70.54
2018-02-11T06:11:12.847Z,70.40
2018-02-11T06:13:41.547Z,70.01
2018-02-11T06:16:07.466Z,70.19
2018-02-11T06:18:36.482Z,70.12
2018-02-11T06:21:02.405Z,70.43
2018-02-11T06:23:31.944Z,70.20
2018-02-11T06:25:57.991Z,70.14
2018-02-11T06:28:42.211Z,70.04
2018-02-11T06:31:08.134Z,71.14
2018-02-11T06:33:34.100Z,71.62
2018-02-11T06:36:00.032Z,71.82
2018-02-11T06:38:26.003Z,72.14
2018-02-11T06:40:51.920Z,72.01
2018-02-11T06:43:17.828Z,71.29
2018-02-11T06:45:43.757Z,71.48
2018-02-11T06:48:09.992Z,71.25
2018-02-11T06:50:35.917Z,70.96
2018-02-11T06:53:01.840Z,71.11
2018-02-11T06:55:27.765Z,71.03
2018-02-11T06:57:53.686Z,70.69
2018-02-11T07:00:19.659Z,69.77
2018-02-11T07:02:45.592Z,70.13
2018-02-11T07:05:11.557Z,69.51
2018-02-11T07:07:37.494Z,69.74
2018-02-11T07:10:07.243Z,69.00
2018-02-11T07:12:33.168Z,68.76
2018-02-11T07:14:59.075Z,68.67
2018-02-11T07:17:25.028Z,68.94
2018-02-11T07:19:51.002Z,68.32
2018-02-11T07:22:18.357Z,68.63
2018-02-11T07:24:44.319Z,67.23
2018-02-11T07:27:13.241Z,67.32
2018-02-11T07:29:39.179Z,66.93
2018-02-11T07:32:08.516Z,66.43
2018-02-11T07:34:34.410Z,66.43
2018-02-11T07:37:03.530Z,66.52
2018-02-11T07:39:29.486Z,65.91
2018-02-11T07:41:57.109Z,65.85
2018-02-11T07:44:23.025Z,65.40
2018-02-11T07:46:52.284Z,64.95
2018-02-11T07:49:18.210Z,64.83
2018-02-11T07:51:44.112Z,64.90
2018-02-11T07:54:10.058Z,64.70
2018-02-11T07:56:35.987Z,63.81
2018-02-11T07:59:02.890Z,63.49
2018-02-11T08:01:28.797Z,63.48
2018-02-11T08:03:57.507Z,63.35
2018-02-11T08:06:23.466Z,63.26
2018-02-11T08:08:52.860Z,63.27
2018-02-11T08:11:18.784Z,63.41
2018-02-11T08:13:48.080Z,63.73
2018-02-11T08:16:14.049Z,64.03
2018-02-11T08:18:43.101Z,63.77
2018-02-11T08:21:09.028Z,64.31
2018-02-11T08:23:36.403Z,64.78
2018-02-11T08:26:02.474Z,64.48
2018-02-11T08:28:28.407Z,64.44
2018-02-11T08:30:54.323Z,64.34
2018-02-11T08:33:20.275Z,63.89
2018-02-11T08:35:49.638Z,63.95
2018-02-11T08:38:15.618Z,63.85
2018-02-11T08:40:42.989Z,63.84
2018-02-11T08:43:08.931Z,64.04
2018-02-11T08:45:37.839Z,63.67
2018-02-11T08:48:05.547Z,64.06
2018-02-11T08:50:32.762Z,64.17
2018-02-11T08:52:58.694Z,64.22
2018-02-11T08:55:27.901Z,64.47
2018-02-11T08:57:53.815Z,64.50
2018-02-11T09:00:23.408Z,65.03
2018-02-11T09:02:49.345Z,65.35
2018-02-11T09:05:15.250Z,65.62
2018-02-11T09:07:41.197Z,65.46
2018-02-11T09:10:07.142Z,65.73
2018-02-11T09:12:34.213Z,65.96
2018-02-11T09:15:00.173Z,66.25
2018-02-11T09:17:29.726Z,66.58
2018-02-11T09:19:55.643Z,67.27
2018-02-11T09:22:24.976Z,67.36
2018-02-11T09:24:50.907Z,67.65
2018-02-11T09:27:17.840Z,68.36
2018-02-11T09:29:43.762Z,69.17
2018-02-11T09:32:12.981Z,69.47
2018-02-11T09:34:38.930Z,69.58
2018-02-11T09:37:08.531Z,69.54
2018-02-11T09:39:34.488Z,69.25
2018-02-11T09:42:00.400Z,69.35
2018-02-11T09:44:26.332Z,69.37
2018-02-11T09:46:52.279Z,69.20
2018-02-11T09:49:19.384Z,68.91
2018-02-11T09:51:45.298Z,68.76
2018-02-11T09:54:15.037Z,69.25
2018-02-11T09:56:41.026Z,69.55
2018-02-11T09:59:08.512Z,69.59
2018-02-11T10:01:34.467Z,69.19
2018-02-11T10:04:07.164Z,69.44
2018-02-11T10:06:33.100Z,69.41
2018-02-11T10:08:59.027Z,69.39
2018-02-11T10:11:24.976Z,70.18
2018-02-11T10:13:54.241Z,70.64
2018-02-11T10:16:20.158Z,70.30
2018-02-11T10:18:46.092Z,70.41
2018-02-11T10:21:12.009Z,70.64
2018-02-11T10:23:37.950Z,72.05
2018-02-11T10:26:04.422Z,74.36
2018-02-11T10:28:30.352Z,75.97
2018-02-11T10:31:00.137Z,77.36
2018-02-11T10:33:26.058Z,77.96
2018-02-11T10:35:55.334Z,79.59
2018-02-11T10:38:21.276Z,79.66
2018-02-11T10:40:48.579Z,79.98
2018-02-11T10:43:14.516Z,78.73
2018-02-11T10:45:43.865Z,79.10
2018-02-11T10:48:09.804Z,78.16
2018-02-11T10:50:39.562Z,78.28
2018-02-11T10:53:05.486Z,77.91
2018-02-11T10:55:31.455Z,77.12
2018-02-11T10:57:57.379Z,77.02
2018-02-11T11:00:23.311Z,76.98
2018-02-11T11:02:49.425Z,77.28
2018-02-11T11:05:15.342Z,77.50
2018-02-11T11:07:44.443Z,77.54
2018-02-11T11:10:10.383Z,78.15
2018-02-11T11:12:39.399Z,78.06
2018-02-11T11:15:05.332Z,78.31
2018-02-11T11:17:34.875Z,77.56
2018-02-11T11:20:00.800Z,78.27
2018-02-11T11:22:29.871Z,77.75
2018-02-11T11:24:55.804Z,77.28
2018-02-11T11:27:23.172Z,77.18
2018-02-11T11:29:49.100Z,77.10
2018-02-11T11:32:15.012Z,76.59
2018-02-11T11:34:41.056Z,76.61
2018-02-11T11:37:06.953Z,76.70
2018-02-11T11:39:34.918Z,77.13
2018-02-11T11:42:00.848Z,76.71
2018-02-11T11:44:29.901Z,76.67
2018-02-11T11:46:55.808Z,77.01
2018-02-11T11:49:25.655Z,76.66
2018-02-11T11:51:51.575Z,76.31
2018-02-11T11:54:18.765Z,77.32
2018-02-11T11:56:44.728Z,77.30
2018-02-11T11:59:13.526Z,77.26
2018-02-11T12:01:39.447Z,77.58
2018-02-11T12:04:08.337Z,77.80
2018-02-11T12:06:34.251Z,77.53
2018-02-11T12:09:00.187Z,77.57
2018-02-11T12:11:26.098Z,77.83
2018-02-11T12:13:52.239Z,77.58
2018-02-11T12:16:21.463Z,77.36
2018-02-11T12:18:47.355Z,77.29
2018-02-11T12:21:14.737Z,77.22
2018-02-11T12:23:40.626Z,76.96
2018-02-11T12:26:10.399Z,77.12
2018-02-11T12:28:36.342Z,77.17
2018-02-11T12:31:04.216Z,77.45
2018-02-11T12:33:30.127Z,78.17
2018-02-11T12:35:59.075Z,78.05
2018-02-11T12:38:24.992Z,78.19
2018-02-11T12:40:53.799Z,79.09
2018-02-11T12:43:19.738Z,79.27
2018-02-11T12:45:45.688Z,79.73
2018-02-11T12:48:12.631Z,80.18
2018-02-11T12:50:38.577Z,80.26
2018-02-11T12:53:05.154Z,80.27
2018-02-11T12:55:31.234Z,79.95
2018-02-11T12:58:00.050Z,80.25
2018-02-11T13:00:25.985Z,80.25
2018-02-11T13:02:54.912Z,80.01
2018-02-11T13:05:20.859Z,79.57
2018-02-11T13:07:50.312Z,79.87
2018-02-11T13:10:16.228Z,79.82
2018-02-11T13:12:45.502Z,79.65
2018-02-11T13:15:11.434Z,79.42
2018-02-11T13:17:40.600Z,79.30
2018-02-11T13:20:06.539Z,79.50
2018-02-11T13:22:32.465Z,79.45
2018-02-11T13:24:58.406Z,79.67
2018-02-11T13:27:24.307Z,80.23
2018-02-11T13:29:51.394Z,79.93
2018-02-11T13:32:20.744Z,80.71
2018-02-11T13:34:46.725Z,81.64
2018-02-11T13:37:12.632Z,82.61
2018-02-11T13:39:41.681Z,83.36
2018-02-11T13:42:07.596Z,83.89
2018-02-11T13:44:36.683Z,84.25
2018-02-11T13:47:02.638Z,84.55
2018-02-11T13:49:30.025Z,84.33
2018-02-11T13:51:55.945Z,84.92
2018-02-11T13:54:24.878Z,85.35
2018-02-11T13:56:50.807Z,85.18
2018-02-11T13:59:16.723Z,85.17
2018-02-11T14:01:42.633Z,85.97
2018-02-11T14:04:08.568Z,85.66
2018-02-11T14:06:37.711Z,85.45
2018-02-11T14:09:03.678Z,84.69
2018-02-11T14:11:31.008Z,85.87
2018-02-11T14:13:56.923Z,85.71
2018-02-11T14:16:26.343Z,85.84
2018-02-11T14:18:52.250Z,86.21
2018-02-11T14:21:21.553Z,86.04
2018-02-11T14:23:47.501Z,86.00
2018-02-11T14:26:15.391Z,86.39
2018-02-11T14:28:41.317Z,87.50
2018-02-11T14:31:10.418Z,87.83
2018-02-11T14:33:36.360Z,88.04
2018-02-11T14:36:02.296Z,87.73
2018-02-11T14:38:28.199Z,87.45
2018-02-11T14:40:54.132Z,86.87
2018-02-11T14:43:21.370Z,86.29
2018-02-11T14:45:47.328Z,86.31
2018-02-11T14:48:16.670Z,86.10
2018-02-11T14:50:43.668Z,85.58
2018-02-11T14:53:10.824Z,86.02
2018-02-11T14:55:36.734Z,86.34
2018-02-11T14:58:07.633Z,86.52
2018-02-11T15:00:33.561Z,86.53
2018-02-11T15:03:00.743Z,86.34
2018-02-11T15:05:26.649Z,86.33
2018-02-11T15:07:56.158Z,86.16
2018-02-11T15:10:22.071Z,86.08
2018-02-11T15:12:51.491Z,85.81
2018-02-11T15:15:17.410Z,85.40
2018-02-11T15:17:43.356Z,85.63
2018-02-11T15:20:09.276Z,85.06
2018-02-11T15:22:35.208Z,84.38
2018-02-11T15:25:01.167Z,84.66
2018-02-11T15:27:27.068Z,84.28
2018-02-11T15:29:56.804Z,84.68
2018-02-11T15:32:22.749Z,84.64
2018-02-11T15:34:50.608Z,84.80
2018-02-11T15:37:17.413Z,85.06
2018-02-11T15:39:46.799Z,85.02
2018-02-11T15:42:12.725Z,84.96
2018-02-11T15:44:40.314Z,84.53
2018-02-11T15:47:06.236Z,84.84
2018-02-11T15:49:32.173Z,84.22
2018-02-11T15:51:58.084Z,84.45
2018-02-11T15:54:24.018Z,84.47
2018-02-11T15:56:53.345Z,84.62
2018-02-11T15:59:19.309Z,84.64
2018-02-11T16:01:46.429Z,84.31
2018-02-11T16:04:12.350Z,84.20
2018-02-11T16:06:42.033Z,83.30
2018-02-11T16:09:08.023Z,82.29
2018-02-11T16:11:36.053Z,83.00
2018-02-11T16:14:01.986Z,80.98
2018-02-11T16:16:30.992Z,81.47
2018-02-11T16:18:56.964Z,80.66
2018-02-11T16:21:26.274Z,80.05
2018-02-11T16:23:52.181Z,80.08
2018-02-11T16:26:18.114Z,79.03
2018-02-11T16:28:44.019Z,79.20
2018-02-11T16:31:09.946Z,79.21
2018-02-11T16:33:37.568Z,78.06
2018-02-11T16:36:03.481Z,78.13
2018-02-11T16:38:32.664Z,78.11
2018-02-11T16:40:58.599Z,77.59
2018-02-11T16:43:27.854Z,77.56
2018-02-11T16:45:53.800Z,77.52
2018-02-11T16:48:23.008Z,77.00
2018-02-11T16:50:48.953Z,77.02
2018-02-11T16:53:16.200Z,76.57
2018-02-11T16:55:42.106Z,76.59
2018-02-11T16:58:11.690Z,76.50
2018-02-11T17:00:37.681Z,75.98
2018-02-11T17:03:03.594Z,76.18
2018-02-11T17:05:29.558Z,76.23
2018-02-11T17:07:55.460Z,76.64
2018-02-11T17:10:23.197Z,76.22
2018-02-11T17:12:49.116Z,76.54
2018-02-11T17:15:18.660Z,76.61
2018-02-11T17:17:44.582Z,77.43
2018-02-11T17:20:13.742Z,76.80
2018-02-11T17:22:39.663Z,76.83
2018-02-11T17:25:07.131Z,77.30
2018-02-11T17:27:33.048Z,77.33
2018-02-11T17:30:02.863Z,77.28
2018-02-11T17:32:28.814Z,77.19
2018-02-11T17:34:56.161Z,78.16
2018-02-11T17:37:22.067Z,78.58
2018-02-11T17:39:48.002Z,79.16
2018-02-11T17:42:13.915Z,79.14
2018-02-11T17:44:39.852Z,79.58
2018-02-11T17:47:09.271Z,80.05
2018-02-11T17:49:35.220Z,80.58
2018-02-11T17:52:02.844Z,81.29
2018-02-11T17:54:28.761Z,81.79
2018-02-11T17:56:57.818Z,82.48
2018-02-11T17:59:23.734Z,82.39
2018-02-11T18:01:52.757Z,82.39
2018-02-11T18:04:18.698Z,82.81
2018-02-11T18:06:48.256Z,83.86
2018-02-11T18:09:14.175Z,83.22
2018-02-11T18:11:41.800Z,83.66
2018-02-11T18:14:07.713Z,84.01
2018-02-11T18:16:33.659Z,83.83
2018-02-11T18:18:59.625Z,83.90
2018-02-11T18:21:25.545Z,83.72
2018-02-11T18:23:53.033Z,83.25
2018-02-11T18:26:18.953Z,83.21
2018-02-11T18:28:48.474Z,83.17
2018-02-11T18:31:14.457Z,82.83
2018-02-11T18:33:43.526Z,82.25
2018-02-11T18:36:09.457Z,82.19
2018-02-11T18:38:38.545Z,81.55
2018-02-11T18:41:04.482Z,81.08
2018-02-11T18:43:32.235Z,81.23
2018-02-11T18:45:58.149Z,81.05
2018-02-11T18:48:26.935Z,80.13
2018-02-11T18:50:52.875Z,80.56
2018-02-11T18:53:18.777Z,80.24
2018-02-11T18:55:44.707Z,79.88
2018-02-11T18:58:10.648Z,79.98
2018-02-11T19:00:38.404Z,79.83
2018-02-11T19:03:04.332Z,79.73
2018-02-11T19:05:33.085Z,79.95
2018-02-11T19:08:13.937Z,79.91
2018-02-11T19:10:39.876Z,80.27
2018-02-11T19:13:05.775Z,80.38
2018-02-11T19:15:31.678Z,80.21
2018-02-11T19:17:57.617Z,79.83
2018-02-11T19:20:23.557Z,79.73
2018-02-11T19:22:49.456Z,79.37
2018-02-11T19:25:15.449Z,79.09
2018-02-11T19:27:41.402Z,79.06
2018-02-11T19:30:07.384Z,78.60
2018-02-11T19:32:33.322Z,79.06
2018-02-11T19:34:59.234Z,78.83
2018-02-11T19:37:25.180Z,78.35
2018-02-11T19:39:51.099Z,78.53
2018-02-11T19:42:18.660Z,79.01
2018-02-11T19:44:44.584Z,78.37
2018-02-11T19:47:13.486Z,78.19
2018-02-11T19:49:39.404Z,77.99
2018-02-11T19:52:09.079Z,78.58
2018-02-11T19:54:34.999Z,77.74
2018-02-11T19:57:02.570Z,77.91
2018-02-11T19:59:28.495Z,78.37
2018-02-11T20:01:57.872Z,78.62
2018-02-11T20:04:23.832Z,78.81
2018-02-11T20:06:49.784Z,79.18
2018-02-11T20:09:15.705Z,78.82
2018-02-11T20:11:41.616Z,78.57
2018-02-11T20:14:09.302Z,78.54
2018-02-11T20:16:35.251Z,78.70
2018-02-11T20:19:04.472Z,78.77
2018-02-11T20:21:30.396Z,78.62
2018-02-11T20:24:00.063Z,78.96
2018-02-11T20:26:25.980Z,78.59
2018-02-11T20:28:53.306Z,78.35
2018-02-11T20:31:19.259Z,77.55
2018-02-11T20:33:48.152Z,77.96
2018-02-11T20:36:14.074Z,78.01
2018-02-11T20:38:43.003Z,77.95
2018-02-11T20:41:08.957Z,77.76
2018-02-11T20:43:34.892Z,77.66
2018-02-11T20:46:00.861Z,77.79
2018-02-11T20:48:26.778Z,77.89
2018-02-11T20:50:56.332Z,78.03
2018-02-11T20:53:22.266Z,78.05
2018-02-11T20:55:49.612Z,78.28
2018-02-11T20:58:15.531Z,77.62
2018-02-11T21:00:44.602Z,77.53
2018-02-11T21:03:10.514Z,77.32
2018-02-11T21:05:40.038Z,77.37
2018-02-11T21:08:05.989Z,77.21
2018-02-11T21:10:33.760Z,77.07
2018-02-11T21:12:59.668Z,76.06
2018-02-11T21:15:29.069Z,75.61
2018-02-11T21:17:54.986Z,75.67
2018-02-11T21:20:20.926Z,75.91
2018-02-11T21:22:46.834Z,75.96
2018-02-11T21:25:12.767Z,75.10
2018-02-11T21:27:40.069Z,75.53
2018-02-11T21:30:06.021Z,75.05
2018-02-11T21:32:35.166Z,74.15
2018-02-11T21:35:01.105Z,74.58
2018-02-11T21:37:30.234Z,74.51
2018-02-11T21:39:56.314Z,74.57
2018-02-11T21:42:25.445Z,74.92
2018-02-11T21:44:51.368Z,75.14
2018-02-11T21:47:19.156Z,75.11
2018-02-11T21:49:45.080Z,74.32
2018-02-11T21:52:14.408Z,74.17
2018-02-11T21:54:40.316Z,74.33
2018-02-11T21:57:06.266Z,74.01
2018-02-11T21:59:32.178Z,73.58
2018-02-11T22:01:58.098Z,73.81
2018-02-11T22:04:25.638Z,74.16
2018-02-11T22:06:51.586Z,74.21
2018-02-11T22:09:21.068Z,74.26
2018-02-11T22:11:47.003Z,74.55
2018-02-11T22:14:14.668Z,74.74
2018-02-11T22:16:40.612Z,75.24
2018-02-11T22:19:09.773Z,75.28
2018-02-11T22:21:35.714Z,75.69
2018-02-11T22:24:05.157Z,75.95
2018-02-11T22:26:31.091Z,76.53
2018-02-11T22:29:00.105Z,76.91
2018-02-11T22:31:26.024Z,77.12
2018-02-11T22:33:51.946Z,77.43
2018-02-11T22:36:17.855Z,77.46
2018-02-11T22:38:43.797Z,77.61
2018-02-11T22:41:10.416Z,77.92
2018-02-11T22:43:36.395Z,78.05
2018-02-11T22:46:06.430Z,77.52
2018-02-11T22:48:32.358Z,77.68
2018-02-11T22:51:01.439Z,77.85
2018-02-11T22:53:27.373Z,78.04
2018-02-11T22:55:56.276Z,78.10
2018-02-11T22:58:22.215Z,79.06
2018-02-11T23:00:50.180Z,79.47
2018-02-11T23:03:16.129Z,79.69
2018-02-11T23:05:45.502Z,79.80
2018-02-11T23:08:11.416Z,80.14
2018-02-11T23:10:37.351Z,80.29
2018-02-11T23:13:03.250Z,80.34
2018-02-11T23:15:29.185Z,80.45
2018-02-11T23:17:55.525Z,80.44
2018-02-11T23:20:21.442Z,79.89
2018-02-11T23:22:50.406Z,80.17
2018-02-11T23:25:16.319Z,80.66
2018-02-11T23:27:45.983Z,81.59
2018-02-11T23:30:11.888Z,82.55
2018-02-11T23:32:41.365Z,83.77
2018-02-11T23:35:07.281Z,84.97
2018-02-11T23:37:34.507Z,85.75
2018-02-11T23:40:00.453Z,86.75
2018-02-11T23:42:30.749Z,87.62
2018-02-11T23:44:56.691Z,88.46
2018-02-11T23:47:22.617Z,88.63
2018-02-11T23:49:48.541Z,88.86
2018-02-11T23:52:14.463Z,89.19
2018-02-11T23:54:41.103Z,89.35
2018-02-11T23:57:07.071Z,89.79
2018-02-11T23:59:36.091Z,90.04
